Terminal Aerodrome Forecast
Issued by NWS

Home | Current Version | Previous Version | Text Only | Print | Product List | Glossary On
Versions: 1 2 3 4 5 6 7 8 9 10 11 12 13 14 15 16
000
FTUS44 KBMX 300520
TAFANB
TAF
KANB 300520Z 3006/0106 19003KT P6SM SCT250
     FM301200 23006KT P6SM SCT050
     FM301500 25010KT P6SM VCTS BKN050CB
     FM302100 25012KT P6SM SCT060=

USA.gov is the U.S. government's official web portal to all federal, state and local government web resources and services.